sensor_id;sensor_type;location;lat;lon;timestamp;temperature;humidity
29539;DHT22;16482;51.046;4.498;2023-11-19T00:01:32;24.00;46.10
29539;DHT22;16482;51.046;4.498;2023-11-19T00:04:25;23.90;46.20
29539;DHT22;16482;51.046;4.498;2023-11-19T00:07:01;23.90;46.30
29539;DHT22;16482;51.046;4.498;2023-11-19T00:10:02;23.90;46.30
29539;DHT22;16482;51.046;4.498;2023-11-19T00:12:51;23.90;46.40
29539;DHT22;16482;51.046;4.498;2023-11-19T00:15:50;23.90;46.30
29539;DHT22;16482;51.046;4.498;2023-11-19T00:18:26;23.90;46.40
29539;DHT22;16482;51.046;4.498;2023-11-19T00:21:05;23.90;46.50
29539;DHT22;16482;51.046;4.498;2023-11-19T00:23:41;23.90;46.50
29539;DHT22;16482;51.046;4.498;2023-11-19T00:26:34;23.90;46.60
29539;DHT22;16482;51.046;4.498;2023-11-19T00:29:09;23.90;46.50
29539;DHT22;16482;51.046;4.498;2023-11-19T00:31:46;23.90;46.60
29539;DHT22;16482;51.046;4.498;2023-11-19T00:34:25;23.80;46.60
29539;DHT22;16482;51.046;4.498;2023-11-19T00:37:03;23.80;46.60
29539;DHT22;16482;51.046;4.498;2023-11-19T00:39:42;23.80;46.70
29539;DHT22;16482;51.046;4.498;2023-11-19T00:42:29;23.80;46.60
29539;DHT22;16482;51.046;4.498;2023-11-19T00:45:07;23.80;46.70
29539;DHT22;16482;51.046;4.498;2023-11-19T00:48:12;23.80;46.60
29539;DHT22;16482;51.046;4.498;2023-11-19T00:50:58;23.80;46.70
29539;DHT22;16482;51.046;4.498;2023-11-19T00:53:39;23.80;46.70
29539;DHT22;16482;51.046;4.498;2023-11-19T00:56:30;23.80;46.70
29539;DHT22;16482;51.046;4.498;2023-11-19T00:59:22;23.80;46.70
29539;DHT22;16482;51.046;4.498;2023-11-19T01:01:59;23.80;46.70
29539;DHT22;16482;51.046;4.498;2023-11-19T01:04:57;23.80;46.80
29539;DHT22;16482;51.046;4.498;2023-11-19T01:07:40;23.90;46.90
29539;DHT22;16482;51.046;4.498;2023-11-19T01:10:19;23.80;46.80
29539;DHT22;16482;51.046;4.498;2023-11-19T01:16:07;23.80;46.80
29539;DHT22;16482;51.046;4.498;2023-11-19T01:18:54;23.80;46.80
29539;DHT22;16482;51.046;4.498;2023-11-19T01:21:38;23.80;46.80
29539;DHT22;16482;51.046;4.498;2023-11-19T01:24:17;23.80;46.90
29539;DHT22;16482;51.046;4.498;2023-11-19T01:27:01;23.80;46.80
29539;DHT22;16482;51.046;4.498;2023-11-19T01:29:50;23.80;46.80
29539;DHT22;16482;51.046;4.498;2023-11-19T01:38:51;23.80;47.00
29539;DHT22;16482;51.046;4.498;2023-11-19T01:41:37;23.70;47.00
29539;DHT22;16482;51.046;4.498;2023-11-19T01:44:14;23.70;47.00
29539;DHT22;16482;51.046;4.498;2023-11-19T01:46:59;23.70;47.00
29539;DHT22;16482;51.046;4.498;2023-11-19T01:50:02;23.70;46.90
29539;DHT22;16482;51.046;4.498;2023-11-19T01:56:22;23.70;47.00
29539;DHT22;16482;51.046;4.498;2023-11-19T01:59:07;23.70;46.90
29539;DHT22;16482;51.046;4.498;2023-11-19T02:01:56;23.70;46.90
29539;DHT22;16482;51.046;4.498;2023-11-19T02:04:35;23.70;47.50
29539;DHT22;16482;51.046;4.498;2023-11-19T02:07:39;23.70;46.90
29539;DHT22;16482;51.046;4.498;2023-11-19T02:10:26;23.70;46.70
29539;DHT22;16482;51.046;4.498;2023-11-19T02:13:11;23.70;46.70
29539;DHT22;16482;51.046;4.498;2023-11-19T02:15:51;23.70;46.70
29539;DHT22;16482;51.046;4.498;2023-11-19T02:18:38;23.70;46.80
29539;DHT22;16482;51.046;4.498;2023-11-19T02:21:37;23.70;46.70
29539;DHT22;16482;51.046;4.498;2023-11-19T02:24:34;23.70;46.60
29539;DHT22;16482;51.046;4.498;2023-11-19T02:27:26;23.70;46.60
29539;DHT22;16482;51.046;4.498;2023-11-19T02:30:07;23.60;46.60
29539;DHT22;16482;51.046;4.498;2023-11-19T02:32:46;23.70;46.70
29539;DHT22;16482;51.046;4.498;2023-11-19T02:35:24;23.60;46.60
29539;DHT22;16482;51.046;4.498;2023-11-19T02:38:06;23.60;46.40
29539;DHT22;16482;51.046;4.498;2023-11-19T02:40:47;23.60;46.50
29539;DHT22;16482;51.046;4.498;2023-11-19T02:43:24;23.70;46.50
29539;DHT22;16482;51.046;4.498;2023-11-19T02:52:36;23.60;46.40
29539;DHT22;16482;51.046;4.498;2023-11-19T02:55:17;23.60;46.40
29539;DHT22;16482;51.046;4.498;2023-11-19T02:58:14;23.60;46.40
29539;DHT22;16482;51.046;4.498;2023-11-19T03:00:58;23.60;46.50
29539;DHT22;16482;51.046;4.498;2023-11-19T03:03:45;23.60;46.50
29539;DHT22;16482;51.046;4.498;2023-11-19T03:06:24;23.60;46.40
29539;DHT22;16482;51.046;4.498;2023-11-19T03:09:06;23.60;46.40
29539;DHT22;16482;51.046;4.498;2023-11-19T03:11:53;23.60;46.30
29539;DHT22;16482;51.046;4.498;2023-11-19T03:14:33;23.60;46.30
29539;DHT22;16482;51.046;4.498;2023-11-19T03:20:20;23.60;46.20
29539;DHT22;16482;51.046;4.498;2023-11-19T03:23:04;23.60;46.20
29539;DHT22;16482;51.046;4.498;2023-11-19T03:25:51;23.60;46.80
29539;DHT22;16482;51.046;4.498;2023-11-19T03:28:32;23.60;46.20
29539;DHT22;16482;51.046;4.498;2023-11-19T03:34:16;23.60;46.10
29539;DHT22;16482;51.046;4.498;2023-11-19T03:37:13;23.60;46.10
29539;DHT22;16482;51.046;4.498;2023-11-19T03:40:17;23.60;46.00
29539;DHT22;16482;51.046;4.498;2023-11-19T03:42:53;23.50;46.00
29539;DHT22;16482;51.046;4.498;2023-11-19T03:45:54;23.60;46.00
29539;DHT22;16482;51.046;4.498;2023-11-19T03:48:33;23.50;46.00
29539;DHT22;16482;51.046;4.498;2023-11-19T03:54:11;23.60;45.90
29539;DHT22;16482;51.046;4.498;2023-11-19T03:56:50;23.50;45.90
29539;DHT22;16482;51.046;4.498;2023-11-19T03:59:32;23.50;45.90
29539;DHT22;16482;51.046;4.498;2023-11-19T04:02:35;23.50;45.90
29539;DHT22;16482;51.046;4.498;2023-11-19T04:08:25;23.50;45.80
29539;DHT22;16482;51.046;4.498;2023-11-19T04:14:09;23.50;45.70
29539;DHT22;16482;51.046;4.498;2023-11-19T04:16:45;23.50;45.70
29539;DHT22;16482;51.046;4.498;2023-11-19T04:19:27;23.50;45.70
29539;DHT22;16482;51.046;4.498;2023-11-19T04:22:08;23.40;45.50
29539;DHT22;16482;51.046;4.498;2023-11-19T04:25:13;23.60;45.60
29539;DHT22;16482;51.046;4.498;2023-11-19T04:27:55;23.60;45.50
29539;DHT22;16482;51.046;4.498;2023-11-19T04:30:33;23.40;45.50
29539;DHT22;16482;51.046;4.498;2023-11-19T04:33:27;23.50;45.50
29539;DHT22;16482;51.046;4.498;2023-11-19T04:39:07;23.50;45.40
29539;DHT22;16482;51.046;4.498;2023-11-19T04:41:47;23.50;45.40
29539;DHT22;16482;51.046;4.498;2023-11-19T04:44:33;23.40;45.40
29539;DHT22;16482;51.046;4.498;2023-11-19T04:47:24;23.40;46.10
29539;DHT22;16482;51.046;4.498;2023-11-19T04:50:22;23.50;45.40
29539;DHT22;16482;51.046;4.498;2023-11-19T04:53:09;23.50;45.30
29539;DHT22;16482;51.046;4.498;2023-11-19T04:59:08;23.50;45.20
29539;DHT22;16482;51.046;4.498;2023-11-19T05:02:31;23.50;45.10
29539;DHT22;16482;51.046;4.498;2023-11-19T05:05:10;23.50;45.10
29539;DHT22;16482;51.046;4.498;2023-11-19T05:07:57;23.40;45.10
29539;DHT22;16482;51.046;4.498;2023-11-19T05:10:57;23.40;45.00
29539;DHT22;16482;51.046;4.498;2023-11-19T05:13:36;23.50;44.90
29539;DHT22;16482;51.046;4.498;2023-11-19T05:16:26;23.40;44.80
29539;DHT22;16482;51.046;4.498;2023-11-19T05:19:10;23.40;44.80
29539;DHT22;16482;51.046;4.498;2023-11-19T05:22:11;23.50;44.80
29539;DHT22;16482;51.046;4.498;2023-11-19T05:24:48;23.50;44.70
29539;DHT22;16482;51.046;4.498;2023-11-19T05:30:34;23.40;44.60
29539;DHT22;16482;51.046;4.498;2023-11-19T05:33:14;23.40;44.60
29539;DHT22;16482;51.046;4.498;2023-11-19T05:35:53;23.50;44.60
29539;DHT22;16482;51.046;4.498;2023-11-19T05:41:53;23.50;44.50
29539;DHT22;16482;51.046;4.498;2023-11-19T05:44:34;23.40;44.40
29539;DHT22;16482;51.046;4.498;2023-11-19T05:47:16;23.40;44.40
29539;DHT22;16482;51.046;4.498;2023-11-19T05:49:57;23.40;44.30
29539;DHT22;16482;51.046;4.498;2023-11-19T05:52:45;23.40;44.30
29539;DHT22;16482;51.046;4.498;2023-11-19T05:55:55;23.40;44.30
29539;DHT22;16482;51.046;4.498;2023-11-19T05:58:59;23.40;44.20
29539;DHT22;16482;51.046;4.498;2023-11-19T06:01:43;23.40;44.20
29539;DHT22;16482;51.046;4.498;2023-11-19T06:04:45;23.40;44.20
29539;DHT22;16482;51.046;4.498;2023-11-19T06:07:28;23.40;44.00
29539;DHT22;16482;51.046;4.498;2023-11-19T06:10:10;23.40;44.20
29539;DHT22;16482;51.046;4.498;2023-11-19T06:12:57;23.40;44.10
29539;DHT22;16482;51.046;4.498;2023-11-19T06:18:55;23.40;44.00
29539;DHT22;16482;51.046;4.498;2023-11-19T06:21:54;23.40;44.10
29539;DHT22;16482;51.046;4.498;2023-11-19T06:28:09;23.40;44.60
29539;DHT22;16482;51.046;4.498;2023-11-19T06:30:51;23.40;44.10
29539;DHT22;16482;51.046;4.498;2023-11-19T06:33:46;23.40;44.80
29539;DHT22;16482;51.046;4.498;2023-11-19T06:39:35;23.40;44.10
29539;DHT22;16482;51.046;4.498;2023-11-19T06:42:49;23.50;44.10
29539;DHT22;16482;51.046;4.498;2023-11-19T06:45:51;23.50;44.10
29539;DHT22;16482;51.046;4.498;2023-11-19T06:48:37;23.50;44.00
29539;DHT22;16482;51.046;4.498;2023-11-19T06:54:24;23.60;43.90
29539;DHT22;16482;51.046;4.498;2023-11-19T06:57:21;23.60;43.90
29539;DHT22;16482;51.046;4.498;2023-11-19T07:00:05;23.70;43.80
29539;DHT22;16482;51.046;4.498;2023-11-19T07:02:47;23.70;43.70
29539;DHT22;16482;51.046;4.498;2023-11-19T07:05:29;23.70;43.60
29539;DHT22;16482;51.046;4.498;2023-11-19T07:08:23;23.70;43.50
29539;DHT22;16482;51.046;4.498;2023-11-19T07:11:04;23.80;43.50
29539;DHT22;16482;51.046;4.498;2023-11-19T07:13:58;23.80;43.40
29539;DHT22;16482;51.046;4.498;2023-11-19T07:16:39;23.80;43.30
29539;DHT22;16482;51.046;4.498;2023-11-19T07:19:28;23.90;43.30
29539;DHT22;16482;51.046;4.498;2023-11-19T07:22:23;23.90;43.20
29539;DHT22;16482;51.046;4.498;2023-11-19T07:25:26;23.90;43.20
29539;DHT22;16482;51.046;4.498;2023-11-19T07:28:11;24.00;43.10
29539;DHT22;16482;51.046;4.498;2023-11-19T07:30:58;24.00;43.20
29539;DHT22;16482;51.046;4.498;2023-11-19T07:33:37;24.00;43.10
29539;DHT22;16482;51.046;4.498;2023-11-19T07:36:35;24.00;43.00
29539;DHT22;16482;51.046;4.498;2023-11-19T07:39:12;24.00;42.90
29539;DHT22;16482;51.046;4.498;2023-11-19T07:41:59;24.00;42.90
29539;DHT22;16482;51.046;4.498;2023-11-19T07:44:43;24.00;42.80
29539;DHT22;16482;51.046;4.498;2023-11-19T07:47:29;24.10;42.80
29539;DHT22;16482;51.046;4.498;2023-11-19T07:50:08;24.00;42.80
29539;DHT22;16482;51.046;4.498;2023-11-19T07:52:50;24.00;42.70
29539;DHT22;16482;51.046;4.498;2023-11-19T07:58:33;24.10;42.70
29539;DHT22;16482;51.046;4.498;2023-11-19T08:01:12;24.10;42.70
29539;DHT22;16482;51.046;4.498;2023-11-19T08:03:58;24.10;42.70
29539;DHT22;16482;51.046;4.498;2023-11-19T08:06:36;24.10;42.60
29539;DHT22;16482;51.046;4.498;2023-11-19T08:09:29;24.10;42.50
29539;DHT22;16482;51.046;4.498;2023-11-19T08:12:23;24.10;42.50
29539;DHT22;16482;51.046;4.498;2023-11-19T08:15:11;24.20;42.60
29539;DHT22;16482;51.046;4.498;2023-11-19T08:17:55;24.10;42.50
29539;DHT22;16482;51.046;4.498;2023-11-19T08:20:41;24.10;42.50
29539;DHT22;16482;51.046;4.498;2023-11-19T08:23:38;24.10;42.50
29539;DHT22;16482;51.046;4.498;2023-11-19T08:26:14;24.20;42.40
29539;DHT22;16482;51.046;4.498;2023-11-19T08:29:00;24.20;42.50
29539;DHT22;16482;51.046;4.498;2023-11-19T08:32:01;24.20;42.40
29539;DHT22;16482;51.046;4.498;2023-11-19T08:37:51;24.20;42.40
29539;DHT22;16482;51.046;4.498;2023-11-19T08:43:27;24.20;42.40
29539;DHT22;16482;51.046;4.498;2023-11-19T08:46:24;24.20;42.30
29539;DHT22;16482;51.046;4.498;2023-11-19T08:49:00;24.20;42.30
29539;DHT22;16482;51.046;4.498;2023-11-19T08:51:36;24.20;42.40
29539;DHT22;16482;51.046;4.498;2023-11-19T08:54:14;24.20;42.40
29539;DHT22;16482;51.046;4.498;2023-11-19T08:56:55;24.20;42.20
29539;DHT22;16482;51.046;4.498;2023-11-19T08:59:44;24.20;42.20
29539;DHT22;16482;51.046;4.498;2023-11-19T09:02:23;24.30;42.20
29539;DHT22;16482;51.046;4.498;2023-11-19T09:05:05;24.30;42.30
29539;DHT22;16482;51.046;4.498;2023-11-19T09:08:06;24.30;42.20
29539;DHT22;16482;51.046;4.498;2023-11-19T09:10:39;24.30;42.10
29539;DHT22;16482;51.046;4.498;2023-11-19T09:13:15;24.20;42.20
29539;DHT22;16482;51.046;4.498;2023-11-19T09:15:54;24.30;42.20
29539;DHT22;16482;51.046;4.498;2023-11-19T09:21:31;24.20;42.00
29539;DHT22;16482;51.046;4.498;2023-11-19T09:24:19;24.30;42.10
29539;DHT22;16482;51.046;4.498;2023-11-19T09:29:49;24.30;42.10
29539;DHT22;16482;51.046;4.498;2023-11-19T09:32:26;24.30;42.10
29539;DHT22;16482;51.046;4.498;2023-11-19T09:35:02;24.30;42.10
29539;DHT22;16482;51.046;4.498;2023-11-19T09:37:46;24.30;42.10
29539;DHT22;16482;51.046;4.498;2023-11-19T09:40:23;24.30;42.00
29539;DHT22;16482;51.046;4.498;2023-11-19T09:43:17;24.30;42.00
29539;DHT22;16482;51.046;4.498;2023-11-19T09:45:55;24.30;42.10
29539;DHT22;16482;51.046;4.498;2023-11-19T09:48:35;24.30;42.00
29539;DHT22;16482;51.046;4.498;2023-11-19T09:51:11;24.30;42.00
29539;DHT22;16482;51.046;4.498;2023-11-19T09:54:07;24.30;42.00
29539;DHT22;16482;51.046;4.498;2023-11-19T09:57:04;24.30;42.00
29539;DHT22;16482;51.046;4.498;2023-11-19T09:59:52;24.30;42.00
29539;DHT22;16482;51.046;4.498;2023-11-19T10:02:53;24.30;42.00
29539;DHT22;16482;51.046;4.498;2023-11-19T10:05:30;24.30;42.00
29539;DHT22;16482;51.046;4.498;2023-11-19T10:08:14;24.30;42.20
29539;DHT22;16482;51.046;4.498;2023-11-19T10:14:04;24.20;42.00
29539;DHT22;16482;51.046;4.498;2023-11-19T10:16:40;24.20;42.00
29539;DHT22;16482;51.046;4.498;2023-11-19T10:19:23;24.20;42.00
29539;DHT22;16482;51.046;4.498;2023-11-19T10:22:15;24.20;42.00
29539;DHT22;16482;51.046;4.498;2023-11-19T10:24:54;24.20;42.00
29539;DHT22;16482;51.046;4.498;2023-11-19T10:27:33;24.20;42.10
29539;DHT22;16482;51.046;4.498;2023-11-19T10:30:24;24.20;42.10
29539;DHT22;16482;51.046;4.498;2023-11-19T10:35:53;24.30;42.10
29539;DHT22;16482;51.046;4.498;2023-11-19T10:38:55;24.20;42.00
29539;DHT22;16482;51.046;4.498;2023-11-19T10:41:35;24.20;42.10
29539;DHT22;16482;51.046;4.498;2023-11-19T10:44:18;24.30;42.20
29539;DHT22;16482;51.046;4.498;2023-11-19T10:47:25;24.20;42.20
29539;DHT22;16482;51.046;4.498;2023-11-19T10:50:02;24.20;42.20
29539;DHT22;16482;51.046;4.498;2023-11-19T10:52:41;24.20;42.20
29539;DHT22;16482;51.046;4.498;2023-11-19T10:55:43;24.20;42.80
29539;DHT22;16482;51.046;4.498;2023-11-19T10:58:25;24.20;42.10
29539;DHT22;16482;51.046;4.498;2023-11-19T11:01:16;24.20;42.10
29539;DHT22;16482;51.046;4.498;2023-11-19T11:03:46;24.20;42.20
29539;DHT22;16482;51.046;4.498;2023-11-19T11:06:34;24.30;42.20
29539;DHT22;16482;51.046;4.498;2023-11-19T11:09:13;24.30;42.20
29539;DHT22;16482;51.046;4.498;2023-11-19T11:11:58;24.20;42.20
29539;DHT22;16482;51.046;4.498;2023-11-19T11:15:00;24.20;42.20
29539;DHT22;16482;51.046;4.498;2023-11-19T11:17:47;24.30;42.20
29539;DHT22;16482;51.046;4.498;2023-11-19T11:20:24;24.20;42.20
29539;DHT22;16482;51.046;4.498;2023-11-19T11:24:05;24.20;42.20
29539;DHT22;16482;51.046;4.498;2023-11-19T11:32:45;24.20;42.10
29539;DHT22;16482;51.046;4.498;2023-11-19T11:38:27;24.20;42.20
29539;DHT22;16482;51.046;4.498;2023-11-19T11:41:27;24.20;42.30
29539;DHT22;16482;51.046;4.498;2023-11-19T11:44:30;24.30;42.20
29539;DHT22;16482;51.046;4.498;2023-11-19T11:50:23;24.20;42.20
29539;DHT22;16482;51.046;4.498;2023-11-19T11:58:36;24.20;42.40
29539;DHT22;16482;51.046;4.498;2023-11-19T12:01:15;24.20;42.30
29539;DHT22;16482;51.046;4.498;2023-11-19T12:04:14;24.20;42.30
29539;DHT22;16482;51.046;4.498;2023-11-19T12:07:26;24.20;42.30
29539;DHT22;16482;51.046;4.498;2023-11-19T12:10:20;24.20;42.30
29539;DHT22;16482;51.046;4.498;2023-11-19T12:13:20;24.20;42.30
29539;DHT22;16482;51.046;4.498;2023-11-19T12:18:57;24.10;42.40
29539;DHT22;16482;51.046;4.498;2023-11-19T12:21:50;24.20;42.30
29539;DHT22;16482;51.046;4.498;2023-11-19T12:24:51;24.20;43.00
29539;DHT22;16482;51.046;4.498;2023-11-19T12:27:35;24.20;42.40
29539;DHT22;16482;51.046;4.498;2023-11-19T12:30:16;24.20;42.40
29539;DHT22;16482;51.046;4.498;2023-11-19T12:35:54;24.20;42.50
29539;DHT22;16482;51.046;4.498;2023-11-19T12:38:31;24.20;42.60
29539;DHT22;16482;51.046;4.498;2023-11-19T12:41:09;24.20;42.60
29539;DHT22;16482;51.046;4.498;2023-11-19T12:44:09;24.20;42.50
29539;DHT22;16482;51.046;4.498;2023-11-19T12:46:47;24.20;42.50
29539;DHT22;16482;51.046;4.498;2023-11-19T12:49:37;24.20;42.60
29539;DHT22;16482;51.046;4.498;2023-11-19T12:52:33;24.20;42.70
29539;DHT22;16482;51.046;4.498;2023-11-19T12:55:48;24.20;42.60
29539;DHT22;16482;51.046;4.498;2023-11-19T12:58:32;24.20;42.60
29539;DHT22;16482;51.046;4.498;2023-11-19T13:04:20;24.20;42.50
29539;DHT22;16482;51.046;4.498;2023-11-19T13:06:57;24.20;42.60
29539;DHT22;16482;51.046;4.498;2023-11-19T13:09:54;24.10;42.60
29539;DHT22;16482;51.046;4.498;2023-11-19T13:12:23;24.10;42.60
29539;DHT22;16482;51.046;4.498;2023-11-19T13:14:54;24.20;42.70
29539;DHT22;16482;51.046;4.498;2023-11-19T13:17:25;24.20;42.70
29539;DHT22;16482;51.046;4.498;2023-11-19T13:20:09;24.20;42.70
29539;DHT22;16482;51.046;4.498;2023-11-19T13:23:10;24.10;42.60
29539;DHT22;16482;51.046;4.498;2023-11-19T13:25:41;24.20;42.70
29539;DHT22;16482;51.046;4.498;2023-11-19T13:28:35;24.20;42.70
29539;DHT22;16482;51.046;4.498;2023-11-19T13:31:11;24.10;42.70
29539;DHT22;16482;51.046;4.498;2023-11-19T13:33:49;24.10;42.70
29539;DHT22;16482;51.046;4.498;2023-11-19T13:36:28;24.10;42.80
29539;DHT22;16482;51.046;4.498;2023-11-19T13:39:10;24.10;42.90
29539;DHT22;16482;51.046;4.498;2023-11-19T13:41:54;24.10;42.90
29539;DHT22;16482;51.046;4.498;2023-11-19T13:44:37;24.10;42.80
29539;DHT22;16482;51.046;4.498;2023-11-19T13:47:37;24.10;42.80
29539;DHT22;16482;51.046;4.498;2023-11-19T13:50:19;24.20;42.80
29539;DHT22;16482;51.046;4.498;2023-11-19T13:53:18;24.10;42.80
29539;DHT22;16482;51.046;4.498;2023-11-19T13:55:59;24.10;42.90
29539;DHT22;16482;51.046;4.498;2023-11-19T13:58:36;24.20;43.00
29539;DHT22;16482;51.046;4.498;2023-11-19T14:03:58;24.20;42.80
29539;DHT22;16482;51.046;4.498;2023-11-19T14:06:29;24.10;42.80
29539;DHT22;16482;51.046;4.498;2023-11-19T14:15:02;24.20;42.90
29539;DHT22;16482;51.046;4.498;2023-11-19T14:17:47;24.10;42.90
29539;DHT22;16482;51.046;4.498;2023-11-19T14:20:38;24.10;43.00
29539;DHT22;16482;51.046;4.498;2023-11-19T14:23:15;24.10;42.90
29539;DHT22;16482;51.046;4.498;2023-11-19T14:26:01;24.10;43.00
29539;DHT22;16482;51.046;4.498;2023-11-19T14:28:35;24.10;42.90
29539;DHT22;16482;51.046;4.498;2023-11-19T14:31:12;24.10;42.80
29539;DHT22;16482;51.046;4.498;2023-11-19T14:33:58;24.20;42.90
29539;DHT22;16482;51.046;4.498;2023-11-19T14:36:44;24.10;42.90
29539;DHT22;16482;51.046;4.498;2023-11-19T14:39:23;24.20;42.90
29539;DHT22;16482;51.046;4.498;2023-11-19T14:45:07;24.20;42.80
29539;DHT22;16482;51.046;4.498;2023-11-19T14:47:46;24.10;42.90
29539;DHT22;16482;51.046;4.498;2023-11-19T14:50:30;24.20;42.90
29539;DHT22;16482;51.046;4.498;2023-11-19T14:53:09;24.10;42.80
29539;DHT22;16482;51.046;4.498;2023-11-19T14:56:03;24.10;42.90
29539;DHT22;16482;51.046;4.498;2023-11-19T14:58:40;24.10;42.90
29539;DHT22;16482;51.046;4.498;2023-11-19T15:01:16;24.10;43.00
29539;DHT22;16482;51.046;4.498;2023-11-19T15:04:13;24.10;43.00
29539;DHT22;16482;51.046;4.498;2023-11-19T15:07:30;24.20;42.90
29539;DHT22;16482;51.046;4.498;2023-11-19T15:10:16;24.10;43.00
29539;DHT22;16482;51.046;4.498;2023-11-19T15:13:12;24.10;43.10
29539;DHT22;16482;51.046;4.498;2023-11-19T15:15:49;24.10;43.00
29539;DHT22;16482;51.046;4.498;2023-11-19T15:18:25;24.10;43.10
29539;DHT22;16482;51.046;4.498;2023-11-19T15:21:06;24.10;43.00
29539;DHT22;16482;51.046;4.498;2023-11-19T15:23:45;24.10;43.00
29539;DHT22;16482;51.046;4.498;2023-11-19T15:29:29;24.20;43.00
29539;DHT22;16482;51.046;4.498;2023-11-19T15:35:22;24.10;42.90
29539;DHT22;16482;51.046;4.498;2023-11-19T15:37:48;24.20;43.00
29539;DHT22;16482;51.046;4.498;2023-11-19T15:40:46;24.20;43.00
29539;DHT22;16482;51.046;4.498;2023-11-19T15:43:35;24.10;42.90
29539;DHT22;16482;51.046;4.498;2023-11-19T15:46:13;24.10;43.10
29539;DHT22;16482;51.046;4.498;2023-11-19T15:48:59;24.20;43.00
29539;DHT22;16482;51.046;4.498;2023-11-19T15:51:40;24.10;42.90
29539;DHT22;16482;51.046;4.498;2023-11-19T15:54:37;24.10;43.00
29539;DHT22;16482;51.046;4.498;2023-11-19T15:57:36;24.20;42.90
29539;DHT22;16482;51.046;4.498;2023-11-19T16:03:21;24.20;42.90
29539;DHT22;16482;51.046;4.498;2023-11-19T16:06:05;24.20;42.90
29539;DHT22;16482;51.046;4.498;2023-11-19T16:08:41;24.20;42.90
29539;DHT22;16482;51.046;4.498;2023-11-19T16:11:17;24.10;42.90
29539;DHT22;16482;51.046;4.498;2023-11-19T16:14:08;24.20;43.00
29539;DHT22;16482;51.046;4.498;2023-11-19T16:16:44;24.20;42.80
29539;DHT22;16482;51.046;4.498;2023-11-19T16:19:20;24.10;42.80
29539;DHT22;16482;51.046;4.498;2023-11-19T16:21:56;24.20;42.80
29539;DHT22;16482;51.046;4.498;2023-11-19T16:24:38;24.20;42.80
29539;DHT22;16482;51.046;4.498;2023-11-19T16:27:12;24.20;42.80
29539;DHT22;16482;51.046;4.498;2023-11-19T16:32:43;24.20;42.70
29539;DHT22;16482;51.046;4.498;2023-11-19T16:35:41;24.20;42.70
29539;DHT22;16482;51.046;4.498;2023-11-19T16:38:18;24.20;42.80
29539;DHT22;16482;51.046;4.498;2023-11-19T16:41:03;24.20;42.80
29539;DHT22;16482;51.046;4.498;2023-11-19T16:43:55;24.10;42.70
29539;DHT22;16482;51.046;4.498;2023-11-19T16:46:35;24.10;42.60
29539;DHT22;16482;51.046;4.498;2023-11-19T16:49:14;24.20;42.80
29539;DHT22;16482;51.046;4.498;2023-11-19T16:51:52;24.20;42.70
29539;DHT22;16482;51.046;4.498;2023-11-19T16:54:28;24.10;42.60
29539;DHT22;16482;51.046;4.498;2023-11-19T16:57:10;24.20;42.70
29539;DHT22;16482;51.046;4.498;2023-11-19T16:59:49;24.20;42.60
29539;DHT22;16482;51.046;4.498;2023-11-19T17:02:21;24.20;42.60
29539;DHT22;16482;51.046;4.498;2023-11-19T17:05:05;24.10;42.60
29539;DHT22;16482;51.046;4.498;2023-11-19T17:10:46;24.20;42.60
29539;DHT22;16482;51.046;4.498;2023-11-19T17:16:38;24.20;42.50
29539;DHT22;16482;51.046;4.498;2023-11-19T17:19:22;24.30;42.70
29539;DHT22;16482;51.046;4.498;2023-11-19T17:21:59;24.20;42.60
29539;DHT22;16482;51.046;4.498;2023-11-19T17:24:27;24.20;42.60
29539;DHT22;16482;51.046;4.498;2023-11-19T17:27:10;24.20;42.50
29539;DHT22;16482;51.046;4.498;2023-11-19T17:30:11;24.30;42.50
29539;DHT22;16482;51.046;4.498;2023-11-19T17:32:55;24.30;42.50
29539;DHT22;16482;51.046;4.498;2023-11-19T17:35:51;24.20;42.50
29539;DHT22;16482;51.046;4.498;2023-11-19T17:38:27;24.20;42.40
29539;DHT22;16482;51.046;4.498;2023-11-19T17:41:16;24.30;42.60
29539;DHT22;16482;51.046;4.498;2023-11-19T17:43:52;24.20;42.40
29539;DHT22;16482;51.046;4.498;2023-11-19T17:46:41;24.30;42.60
29539;DHT22;16482;51.046;4.498;2023-11-19T17:49:20;24.30;42.50
29539;DHT22;16482;51.046;4.498;2023-11-19T17:54:59;24.20;42.40
29539;DHT22;16482;51.046;4.498;2023-11-19T17:57:31;24.30;42.50
29539;DHT22;16482;51.046;4.498;2023-11-19T18:00:27;24.20;42.50
29539;DHT22;16482;51.046;4.498;2023-11-19T18:03:17;24.30;42.50
29539;DHT22;16482;51.046;4.498;2023-11-19T18:06:12;24.20;42.40
29539;DHT22;16482;51.046;4.498;2023-11-19T18:09:19;24.30;42.50
29539;DHT22;16482;51.046;4.498;2023-11-19T18:11:55;24.30;42.40
29539;DHT22;16482;51.046;4.498;2023-11-19T18:14:34;24.20;42.50
29539;DHT22;16482;51.046;4.498;2023-11-19T18:17:31;24.30;42.50
29539;DHT22;16482;51.046;4.498;2023-11-19T18:20:08;24.30;42.40
29539;DHT22;16482;51.046;4.498;2023-11-19T18:22:47;24.20;42.40
29539;DHT22;16482;51.046;4.498;2023-11-19T18:25:26;24.20;42.50
29539;DHT22;16482;51.046;4.498;2023-11-19T18:28:12;24.20;42.50
29539;DHT22;16482;51.046;4.498;2023-11-19T18:30:48;24.30;42.50
29539;DHT22;16482;51.046;4.498;2023-11-19T18:33:52;24.20;42.50
29539;DHT22;16482;51.046;4.498;2023-11-19T18:36:46;24.30;42.40
29539;DHT22;16482;51.046;4.498;2023-11-19T18:39:17;24.20;42.40
29539;DHT22;16482;51.046;4.498;2023-11-19T18:45:07;24.30;42.40
29539;DHT22;16482;51.046;4.498;2023-11-19T18:48:12;24.30;42.40
29539;DHT22;16482;51.046;4.498;2023-11-19T18:51:04;24.30;42.40
29539;DHT22;16482;51.046;4.498;2023-11-19T18:53:41;24.30;42.40
29539;DHT22;16482;51.046;4.498;2023-11-19T18:56:31;24.30;42.50
29539;DHT22;16482;51.046;4.498;2023-11-19T18:59:00;24.30;42.40
29539;DHT22;16482;51.046;4.498;2023-11-19T19:01:46;24.20;42.30
29539;DHT22;16482;51.046;4.498;2023-11-19T19:04:25;24.30;42.40
29539;DHT22;16482;51.046;4.498;2023-11-19T19:10:37;24.30;42.30
29539;DHT22;16482;51.046;4.498;2023-11-19T19:13:13;24.30;42.40
29539;DHT22;16482;51.046;4.498;2023-11-19T19:15:59;24.20;42.40
29539;DHT22;16482;51.046;4.498;2023-11-19T19:18:35;24.30;42.40
29539;DHT22;16482;51.046;4.498;2023-11-19T19:21:16;24.30;42.40
29539;DHT22;16482;51.046;4.498;2023-11-19T19:24:04;24.20;42.20
29539;DHT22;16482;51.046;4.498;2023-11-19T19:27:04;24.30;42.30
29539;DHT22;16482;51.046;4.498;2023-11-19T19:32:47;24.20;42.40
29539;DHT22;16482;51.046;4.498;2023-11-19T19:35:23;24.10;42.50
29539;DHT22;16482;51.046;4.498;2023-11-19T19:38:31;24.20;42.60
29539;DHT22;16482;51.046;4.498;2023-11-19T19:41:28;24.30;42.50
29539;DHT22;16482;51.046;4.498;2023-11-19T19:44:06;24.30;42.60
29539;DHT22;16482;51.046;4.498;2023-11-19T19:46:53;24.20;42.50
29539;DHT22;16482;51.046;4.498;2023-11-19T19:49:31;24.20;42.50
29539;DHT22;16482;51.046;4.498;2023-11-19T19:52:27;24.30;42.50
29539;DHT22;16482;51.046;4.498;2023-11-19T19:55:04;24.30;42.50